sensor_id;sensor_type;location;lat;lon;timestamp;temperature;humidity
38239;DHT22;24035;48.900;9.188;2023-04-21T00:02:23;4.90;99.90
38239;DHT22;24035;48.900;9.188;2023-04-21T00:04:48;4.80;1.00
38239;DHT22;24035;48.900;9.188;2023-04-21T00:07:16;4.80;1.00
38239;DHT22;24035;48.900;9.188;2023-04-21T00:09:42;4.80;1.00
38239;DHT22;24035;48.900;9.188;2023-04-21T00:12:07;4.80;1.00
38239;DHT22;24035;48.900;9.188;2023-04-21T00:14:33;4.90;9.60
38239;DHT22;24035;48.900;9.188;2023-04-21T00:16:59;4.90;66.20
38239;DHT22;24035;48.900;9.188;2023-04-21T00:19:25;4.90;15.10
38239;DHT22;24035;48.900;9.188;2023-04-21T00:21:51;4.90;1.00
38239;DHT22;24035;48.900;9.188;2023-04-21T00:24:23;4.80;12.00
38239;DHT22;24035;48.900;9.188;2023-04-21T00:26:50;4.80;74.40
38239;DHT22;24035;48.900;9.188;2023-04-21T00:29:15;4.80;25.80
38239;DHT22;24035;48.900;9.188;2023-04-21T00:31:41;4.70;15.70
38239;DHT22;24035;48.900;9.188;2023-04-21T00:34:06;4.70;53.20
38239;DHT22;24035;48.900;9.188;2023-04-21T00:36:32;4.70;2.00
38239;DHT22;24035;48.900;9.188;2023-04-21T00:38:58;4.60;1.00
38239;DHT22;24035;48.900;9.188;2023-04-21T00:41:23;4.60;1.00
38239;DHT22;24035;48.900;9.188;2023-04-21T00:44:06;4.60;1.00
38239;DHT22;24035;48.900;9.188;2023-04-21T00:46:33;4.60;1.00
38239;DHT22;24035;48.900;9.188;2023-04-21T00:48:59;4.50;1.00
38239;DHT22;24035;48.900;9.188;2023-04-21T00:51:27;4.50;42.80
38239;DHT22;24035;48.900;9.188;2023-04-21T00:53:55;4.50;92.00
38239;DHT22;24035;48.900;9.188;2023-04-21T00:56:21;4.60;99.90
38239;DHT22;24035;48.900;9.188;2023-04-21T00:58:47;4.60;99.90
38239;DHT22;24035;48.900;9.188;2023-04-21T01:01:13;4.60;99.90
38239;DHT22;24035;48.900;9.188;2023-04-21T01:03:40;4.60;99.90
38239;DHT22;24035;48.900;9.188;2023-04-21T01:06:05;4.70;99.90
38239;DHT22;24035;48.900;9.188;2023-04-21T01:08:32;4.60;99.90
38239;DHT22;24035;48.900;9.188;2023-04-21T01:10:57;4.60;99.90
38239;DHT22;24035;48.900;9.188;2023-04-21T01:13:23;4.60;99.90
38239;DHT22;24035;48.900;9.188;2023-04-21T01:15:49;4.60;99.90
38239;DHT22;24035;48.900;9.188;2023-04-21T01:18:14;4.50;19.10
38239;DHT22;24035;48.900;9.188;2023-04-21T01:20:41;4.50;48.90
38239;DHT22;24035;48.900;9.188;2023-04-21T01:23:09;4.60;99.90
38239;DHT22;24035;48.900;9.188;2023-04-21T01:25:35;4.60;99.90
38239;DHT22;24035;48.900;9.188;2023-04-21T01:28:01;4.60;99.90
38239;DHT22;24035;48.900;9.188;2023-04-21T01:30:27;4.50;99.90
38239;DHT22;24035;48.900;9.188;2023-04-21T01:32:53;4.50;36.60
38239;DHT22;24035;48.900;9.188;2023-04-21T01:35:18;4.40;1.00
38239;DHT22;24035;48.900;9.188;2023-04-21T01:37:44;4.30;1.00
38239;DHT22;24035;48.900;9.188;2023-04-21T01:40:10;4.30;1.00
38239;DHT22;24035;48.900;9.188;2023-04-21T01:42:38;4.20;1.00
38239;DHT22;24035;48.900;9.188;2023-04-21T01:45:05;4.10;1.00
38239;DHT22;24035;48.900;9.188;2023-04-21T01:47:31;4.10;1.00
38239;DHT22;24035;48.900;9.188;2023-04-21T01:49:57;4.10;1.00
38239;DHT22;24035;48.900;9.188;2023-04-21T01:52:23;4.00;1.00
38239;DHT22;24035;48.900;9.188;2023-04-21T01:54:48;4.00;1.00
38239;DHT22;24035;48.900;9.188;2023-04-21T01:57:15;3.90;1.00
38239;DHT22;24035;48.900;9.188;2023-04-21T01:59:41;3.90;1.00
38239;DHT22;24035;48.900;9.188;2023-04-21T02:02:07;3.80;1.00
38239;DHT22;24035;48.900;9.188;2023-04-21T02:04:34;3.80;1.00
38239;DHT22;24035;48.900;9.188;2023-04-21T02:07:00;3.70;1.00
38239;DHT22;24035;48.900;9.188;2023-04-21T02:09:26;3.70;1.00
38239;DHT22;24035;48.900;9.188;2023-04-21T02:11:52;3.70;1.00
38239;DHT22;24035;48.900;9.188;2023-04-21T02:14:18;3.70;1.00
38239;DHT22;24035;48.900;9.188;2023-04-21T02:16:43;3.70;1.00
38239;DHT22;24035;48.900;9.188;2023-04-21T02:19:09;3.60;1.00
38239;DHT22;24035;48.900;9.188;2023-04-21T02:21:35;3.50;1.00
38239;DHT22;24035;48.900;9.188;2023-04-21T02:24:00;3.60;1.00
38239;DHT22;24035;48.900;9.188;2023-04-21T02:26:26;3.60;1.00
38239;DHT22;24035;48.900;9.188;2023-04-21T02:28:52;3.50;1.00
38239;DHT22;24035;48.900;9.188;2023-04-21T02:31:17;3.40;1.00
38239;DHT22;24035;48.900;9.188;2023-04-21T02:33:43;3.40;1.00
38239;DHT22;24035;48.900;9.188;2023-04-21T02:36:09;3.30;1.00
38239;DHT22;24035;48.900;9.188;2023-04-21T02:38:35;3.20;1.00
38239;DHT22;24035;48.900;9.188;2023-04-21T02:41:01;3.20;1.00
38239;DHT22;24035;48.900;9.188;2023-04-21T02:43:26;3.20;1.00
38239;DHT22;24035;48.900;9.188;2023-04-21T02:45:52;3.20;1.00
38239;DHT22;24035;48.900;9.188;2023-04-21T02:48:17;3.20;94.80
38239;DHT22;24035;48.900;9.188;2023-04-21T02:50:48;3.30;99.90
38239;DHT22;24035;48.900;9.188;2023-04-21T02:53:14;3.20;96.60
38239;DHT22;24035;48.900;9.188;2023-04-21T02:55:41;3.20;92.10
38239;DHT22;24035;48.900;9.188;2023-04-21T02:58:06;3.20;99.90
38239;DHT22;24035;48.900;9.188;2023-04-21T03:00:32;3.20;99.90
38239;DHT22;24035;48.900;9.188;2023-04-21T03:02:57;3.10;99.90
38239;DHT22;24035;48.900;9.188;2023-04-21T03:05:23;3.10;92.70
38239;DHT22;24035;48.900;9.188;2023-04-21T03:07:49;3.20;99.90
38239;DHT22;24035;48.900;9.188;2023-04-21T03:10:15;3.20;99.90
38239;DHT22;24035;48.900;9.188;2023-04-21T03:12:41;3.20;99.90
38239;DHT22;24035;48.900;9.188;2023-04-21T03:15:06;3.20;99.90
38239;DHT22;24035;48.900;9.188;2023-04-21T03:17:32;3.10;99.90
38239;DHT22;24035;48.900;9.188;2023-04-21T03:19:58;3.00;99.90
38239;DHT22;24035;48.900;9.188;2023-04-21T03:22:23;3.00;99.90
38239;DHT22;24035;48.900;9.188;2023-04-21T03:24:49;3.00;99.90
38239;DHT22;24035;48.900;9.188;2023-04-21T03:27:14;3.10;99.90
38239;DHT22;24035;48.900;9.188;2023-04-21T03:29:40;3.00;99.90
38239;DHT22;24035;48.900;9.188;2023-04-21T03:32:06;2.90;99.90
38239;DHT22;24035;48.900;9.188;2023-04-21T03:34:31;2.90;99.90
38239;DHT22;24035;48.900;9.188;2023-04-21T03:36:57;2.90;99.90
38239;DHT22;24035;48.900;9.188;2023-04-21T03:39:22;2.90;99.90
38239;DHT22;24035;48.900;9.188;2023-04-21T03:41:48;3.00;99.90
38239;DHT22;24035;48.900;9.188;2023-04-21T03:44:14;3.00;99.90
38239;DHT22;24035;48.900;9.188;2023-04-21T03:46:39;3.00;99.90
38239;DHT22;24035;48.900;9.188;2023-04-21T03:49:05;3.10;1.00
38239;DHT22;24035;48.900;9.188;2023-04-21T03:51:31;3.20;1.00
38239;DHT22;24035;48.900;9.188;2023-04-21T03:53:57;3.30;1.00
38239;DHT22;24035;48.900;9.188;2023-04-21T03:56:22;3.30;1.00
38239;DHT22;24035;48.900;9.188;2023-04-21T03:58:48;3.20;1.00
38239;DHT22;24035;48.900;9.188;2023-04-21T04:01:14;3.20;99.90
38239;DHT22;24035;48.900;9.188;2023-04-21T04:03:40;3.20;1.00
38239;DHT22;24035;48.900;9.188;2023-04-21T04:06:05;3.30;1.00
38239;DHT22;24035;48.900;9.188;2023-04-21T04:08:31;3.40;1.00
38239;DHT22;24035;48.900;9.188;2023-04-21T04:10:57;3.60;1.00
38239;DHT22;24035;48.900;9.188;2023-04-21T04:13:23;3.60;1.00
38239;DHT22;24035;48.900;9.188;2023-04-21T04:15:51;3.50;1.00
38239;DHT22;24035;48.900;9.188;2023-04-21T04:18:17;3.50;1.00
38239;DHT22;24035;48.900;9.188;2023-04-21T04:20:42;3.40;99.90
38239;DHT22;24035;48.900;9.188;2023-04-21T04:23:08;3.30;99.90
38239;DHT22;24035;48.900;9.188;2023-04-21T04:25:34;3.20;99.90
38239;DHT22;24035;48.900;9.188;2023-04-21T04:28:01;3.20;99.90
38239;DHT22;24035;48.900;9.188;2023-04-21T04:30:27;3.10;99.90
38239;DHT22;24035;48.900;9.188;2023-04-21T04:32:53;3.20;99.90
38239;DHT22;24035;48.900;9.188;2023-04-21T04:35:19;3.30;99.90
38239;DHT22;24035;48.900;9.188;2023-04-21T04:37:44;3.40;99.90
38239;DHT22;24035;48.900;9.188;2023-04-21T04:40:10;3.40;99.90
38239;DHT22;24035;48.900;9.188;2023-04-21T04:42:40;3.50;99.90
38239;DHT22;24035;48.900;9.188;2023-04-21T04:45:07;3.50;99.90
38239;DHT22;24035;48.900;9.188;2023-04-21T04:47:37;3.50;99.90
38239;DHT22;24035;48.900;9.188;2023-04-21T04:50:03;3.50;99.90
38239;DHT22;24035;48.900;9.188;2023-04-21T04:52:29;3.50;99.90
38239;DHT22;24035;48.900;9.188;2023-04-21T04:54:55;3.40;99.90
38239;DHT22;24035;48.900;9.188;2023-04-21T04:57:20;3.50;99.90
38239;DHT22;24035;48.900;9.188;2023-04-21T04:59:46;3.50;99.90
38239;DHT22;24035;48.900;9.188;2023-04-21T05:02:12;3.60;99.90
38239;DHT22;24035;48.900;9.188;2023-04-21T05:04:38;3.80;99.90
38239;DHT22;24035;48.900;9.188;2023-04-21T05:07:04;3.90;1.00
38239;DHT22;24035;48.900;9.188;2023-04-21T05:09:32;4.00;1.00
38239;DHT22;24035;48.900;9.188;2023-04-21T05:11:58;4.10;99.90
38239;DHT22;24035;48.900;9.188;2023-04-21T05:14:24;4.10;99.90
38239;DHT22;24035;48.900;9.188;2023-04-21T05:16:49;4.20;99.90
38239;DHT22;24035;48.900;9.188;2023-04-21T05:19:15;4.20;99.90
38239;DHT22;24035;48.900;9.188;2023-04-21T05:21:40;4.30;99.90
38239;DHT22;24035;48.900;9.188;2023-04-21T05:24:06;4.20;99.90
38239;DHT22;24035;48.900;9.188;2023-04-21T05:26:32;4.40;99.90
38239;DHT22;24035;48.900;9.188;2023-04-21T05:28:57;4.50;99.90
38239;DHT22;24035;48.900;9.188;2023-04-21T05:31:23;4.50;99.90
38239;DHT22;24035;48.900;9.188;2023-04-21T05:33:49;4.60;99.90
38239;DHT22;24035;48.900;9.188;2023-04-21T05:36:15;4.60;99.90
38239;DHT22;24035;48.900;9.188;2023-04-21T05:38:41;4.60;99.90
38239;DHT22;24035;48.900;9.188;2023-04-21T05:41:07;4.60;80.30
38239;DHT22;24035;48.900;9.188;2023-04-21T05:43:33;4.60;1.00
38239;DHT22;24035;48.900;9.188;2023-04-21T05:46:00;4.70;38.10
38239;DHT22;24035;48.900;9.188;2023-04-21T05:48:26;4.70;1.00
38239;DHT22;24035;48.900;9.188;2023-04-21T05:50:53;4.80;1.00
38239;DHT22;24035;48.900;9.188;2023-04-21T05:53:19;4.90;1.00
38239;DHT22;24035;48.900;9.188;2023-04-21T05:55:44;4.90;1.00
38239;DHT22;24035;48.900;9.188;2023-04-21T05:58:10;5.00;1.00
38239;DHT22;24035;48.900;9.188;2023-04-21T06:00:36;5.10;58.20
38239;DHT22;24035;48.900;9.188;2023-04-21T06:03:02;5.20;2.30
38239;DHT22;24035;48.900;9.188;2023-04-21T06:05:27;5.10;1.00
38239;DHT22;24035;48.900;9.188;2023-04-21T06:07:53;5.10;1.00
38239;DHT22;24035;48.900;9.188;2023-04-21T06:10:19;5.20;1.00
38239;DHT22;24035;48.900;9.188;2023-04-21T06:12:45;5.30;1.00
38239;DHT22;24035;48.900;9.188;2023-04-21T06:15:11;5.50;1.00
38239;DHT22;24035;48.900;9.188;2023-04-21T06:17:36;5.60;1.00
38239;DHT22;24035;48.900;9.188;2023-04-21T06:20:02;5.80;1.00
38239;DHT22;24035;48.900;9.188;2023-04-21T06:22:28;6.10;1.00
38239;DHT22;24035;48.900;9.188;2023-04-21T06:24:54;6.40;1.00
38239;DHT22;24035;48.900;9.188;2023-04-21T06:27:19;6.60;1.00
38239;DHT22;24035;48.900;9.188;2023-04-21T06:29:45;6.50;1.00
38239;DHT22;24035;48.900;9.188;2023-04-21T06:32:11;6.70;1.00
38239;DHT22;24035;48.900;9.188;2023-04-21T06:34:37;6.80;1.00
38239;DHT22;24035;48.900;9.188;2023-04-21T06:37:03;6.60;1.00
38239;DHT22;24035;48.900;9.188;2023-04-21T06:39:29;6.40;1.00
38239;DHT22;24035;48.900;9.188;2023-04-21T06:41:55;6.50;1.00
38239;DHT22;24035;48.900;9.188;2023-04-21T06:44:22;6.90;1.00
38239;DHT22;24035;48.900;9.188;2023-04-21T06:46:48;7.70;99.90
38239;DHT22;24035;48.900;9.188;2023-04-21T06:49:13;8.70;1.00
38239;DHT22;24035;48.900;9.188;2023-04-21T06:51:39;9.50;99.90
38239;DHT22;24035;48.900;9.188;2023-04-21T06:54:05;10.20;99.90
38239;DHT22;24035;48.900;9.188;2023-04-21T06:56:31;11.00;1.00
38239;DHT22;24035;48.900;9.188;2023-04-21T06:58:57;11.30;99.90
38239;DHT22;24035;48.900;9.188;2023-04-21T07:01:22;10.90;1.00
38239;DHT22;24035;48.900;9.188;2023-04-21T07:03:49;10.40;99.90
38239;DHT22;24035;48.900;9.188;2023-04-21T07:06:15;9.60;99.90
38239;DHT22;24035;48.900;9.188;2023-04-21T07:08:41;9.10;1.00
38239;DHT22;24035;48.900;9.188;2023-04-21T07:11:07;8.90;76.30
38239;DHT22;24035;48.900;9.188;2023-04-21T07:13:32;8.60;99.90
38239;DHT22;24035;48.900;9.188;2023-04-21T07:15:58;8.40;99.90
38239;DHT22;24035;48.900;9.188;2023-04-21T07:18:23;8.30;99.90
38239;DHT22;24035;48.900;9.188;2023-04-21T07:20:49;8.20;1.00
38239;DHT22;24035;48.900;9.188;2023-04-21T07:23:15;8.20;39.90
38239;DHT22;24035;48.900;9.188;2023-04-21T07:25:41;8.30;2.60
38239;DHT22;24035;48.900;9.188;2023-04-21T07:28:07;8.40;1.00
38239;DHT22;24035;48.900;9.188;2023-04-21T07:30:32;8.20;1.00
38239;DHT22;24035;48.900;9.188;2023-04-21T07:32:58;8.10;99.90
38239;DHT22;24035;48.900;9.188;2023-04-21T07:35:24;8.20;99.90
38239;DHT22;24035;48.900;9.188;2023-04-21T07:37:50;8.40;12.20
38239;DHT22;24035;48.900;9.188;2023-04-21T07:40:16;8.50;99.90
38239;DHT22;24035;48.900;9.188;2023-04-21T07:42:42;9.10;1.00
38239;DHT22;24035;48.900;9.188;2023-04-21T07:45:07;9.30;1.60
38239;DHT22;24035;48.900;9.188;2023-04-21T07:47:33;9.80;1.00
38239;DHT22;24035;48.900;9.188;2023-04-21T07:49:59;10.20;99.90
38239;DHT22;24035;48.900;9.188;2023-04-21T07:52:25;10.30;99.90
38239;DHT22;24035;48.900;9.188;2023-04-21T07:54:51;10.30;99.90
38239;DHT22;24035;48.900;9.188;2023-04-21T07:57:18;11.00;33.90
38239;DHT22;24035;48.900;9.188;2023-04-21T07:59:43;11.50;1.00
38239;DHT22;24035;48.900;9.188;2023-04-21T08:02:09;11.80;1.00
38239;DHT22;24035;48.900;9.188;2023-04-21T08:04:35;12.30;99.90
38239;DHT22;24035;48.900;9.188;2023-04-21T08:07:00;13.00;99.90
38239;DHT22;24035;48.900;9.188;2023-04-21T08:09:26;13.10;1.00
38239;DHT22;24035;48.900;9.188;2023-04-21T08:11:52;12.80;1.00
38239;DHT22;24035;48.900;9.188;2023-04-21T08:14:18;12.20;99.90
38239;DHT22;24035;48.900;9.188;2023-04-21T08:16:44;12.20;99.90
38239;DHT22;24035;48.900;9.188;2023-04-21T08:19:10;12.10;99.90
38239;DHT22;24035;48.900;9.188;2023-04-21T08:21:36;12.50;99.90
38239;DHT22;24035;48.900;9.188;2023-04-21T08:24:02;13.10;99.90
38239;DHT22;24035;48.900;9.188;2023-04-21T08:26:27;13.90;1.00
38239;DHT22;24035;48.900;9.188;2023-04-21T08:28:55;14.20;1.00
38239;DHT22;24035;48.900;9.188;2023-04-21T08:31:21;14.30;1.00
38239;DHT22;24035;48.900;9.188;2023-04-21T08:33:47;14.10;1.00
38239;DHT22;24035;48.900;9.188;2023-04-21T08:36:12;14.40;1.00
38239;DHT22;24035;48.900;9.188;2023-04-21T08:38:41;14.40;1.00
38239;DHT22;24035;48.900;9.188;2023-04-21T08:41:07;13.90;1.00
38239;DHT22;24035;48.900;9.188;2023-04-21T08:43:33;13.60;1.00
38239;DHT22;24035;48.900;9.188;2023-04-21T08:46:01;13.30;1.00
38239;DHT22;24035;48.900;9.188;2023-04-21T08:48:28;12.50;99.90
38239;DHT22;24035;48.900;9.188;2023-04-21T08:50:55;12.40;99.90
38239;DHT22;24035;48.900;9.188;2023-04-21T08:53:21;12.40;99.90
38239;DHT22;24035;48.900;9.188;2023-04-21T08:55:51;12.00;99.90
38239;DHT22;24035;48.900;9.188;2023-04-21T08:58:17;11.60;1.00
38239;DHT22;24035;48.900;9.188;2023-04-21T09:00:43;11.40;1.00
38239;DHT22;24035;48.900;9.188;2023-04-21T09:03:09;11.40;1.00
38239;DHT22;24035;48.900;9.188;2023-04-21T09:05:35;11.50;1.00
38239;DHT22;24035;48.900;9.188;2023-04-21T09:08:13;11.80;1.00
38239;DHT22;24035;48.900;9.188;2023-04-21T09:10:48;11.70;1.00
38239;DHT22;24035;48.900;9.188;2023-04-21T09:13:15;11.60;1.00
38239;DHT22;24035;48.900;9.188;2023-04-21T09:15:43;11.80;1.00
38239;DHT22;24035;48.900;9.188;2023-04-21T09:18:13;11.80;1.00
38239;DHT22;24035;48.900;9.188;2023-04-21T09:20:40;11.90;1.00
38239;DHT22;24035;48.900;9.188;2023-04-21T09:23:06;12.00;1.00
38239;DHT22;24035;48.900;9.188;2023-04-21T09:25:32;12.20;1.00
38239;DHT22;24035;48.900;9.188;2023-04-21T09:28:01;12.30;99.90
38239;DHT22;24035;48.900;9.188;2023-04-21T09:30:27;12.20;99.90
38239;DHT22;24035;48.900;9.188;2023-04-21T09:32:56;12.20;99.90
38239;DHT22;24035;48.900;9.188;2023-04-21T09:35:26;12.20;99.90
38239;DHT22;24035;48.900;9.188;2023-04-21T09:37:52;12.30;99.90
38239;DHT22;24035;48.900;9.188;2023-04-21T09:40:18;12.20;99.90
38239;DHT22;24035;48.900;9.188;2023-04-21T09:42:44;12.30;1.00
38239;DHT22;24035;48.900;9.188;2023-04-21T09:45:10;12.40;99.90
38239;DHT22;24035;48.900;9.188;2023-04-21T09:47:39;12.50;99.90
38239;DHT22;24035;48.900;9.188;2023-04-21T09:50:11;12.50;99.90
38239;DHT22;24035;48.900;9.188;2023-04-21T09:52:38;12.60;99.90
38239;DHT22;24035;48.900;9.188;2023-04-21T09:55:10;12.40;99.90
38239;DHT22;24035;48.900;9.188;2023-04-21T09:57:37;12.40;99.90
38239;DHT22;24035;48.900;9.188;2023-04-21T10:00:05;12.30;99.90
38239;DHT22;24035;48.900;9.188;2023-04-21T10:02:44;12.40;99.90
38239;DHT22;24035;48.900;9.188;2023-04-21T10:05:12;12.50;99.90
38239;DHT22;24035;48.900;9.188;2023-04-21T10:07:38;12.30;1.00
38239;DHT22;24035;48.900;9.188;2023-04-21T10:10:07;12.40;99.90
38239;DHT22;24035;48.900;9.188;2023-04-21T10:12:33;12.60;1.00
38239;DHT22;24035;48.900;9.188;2023-04-21T10:15:05;12.90;99.90
38239;DHT22;24035;48.900;9.188;2023-04-21T10:17:34;13.10;99.90
38239;DHT22;24035;48.900;9.188;2023-04-21T10:20:05;13.30;99.90
38239;DHT22;24035;48.900;9.188;2023-04-21T10:22:34;13.30;99.90
38239;DHT22;24035;48.900;9.188;2023-04-21T10:25:02;13.10;99.90
38239;DHT22;24035;48.900;9.188;2023-04-21T10:27:39;13.10;99.90
38239;DHT22;24035;48.900;9.188;2023-04-21T10:30:20;12.90;99.90
38239;DHT22;24035;48.900;9.188;2023-04-21T10:32:47;12.80;99.90
38239;DHT22;24035;48.900;9.188;2023-04-21T10:35:16;12.90;99.90
38239;DHT22;24035;48.900;9.188;2023-04-21T10:37:49;13.00;99.90
38239;DHT22;24035;48.900;9.188;2023-04-21T10:40:32;13.20;99.90
38239;DHT22;24035;48.900;9.188;2023-04-21T10:43:02;13.40;99.90
38239;DHT22;24035;48.900;9.188;2023-04-21T10:45:29;13.60;99.90
38239;DHT22;24035;48.900;9.188;2023-04-21T10:47:58;13.50;99.90
38239;DHT22;24035;48.900;9.188;2023-04-21T10:50:30;13.50;99.90
38239;DHT22;24035;48.900;9.188;2023-04-21T10:52:57;13.50;99.90
38239;DHT22;24035;48.900;9.188;2023-04-21T10:55:28;13.60;99.90
38239;DHT22;24035;48.900;9.188;2023-04-21T10:57:54;13.60;99.90
38239;DHT22;24035;48.900;9.188;2023-04-21T11:00:22;13.70;99.90
38239;DHT22;24035;48.900;9.188;2023-04-21T11:02:59;13.90;92.10
38239;DHT22;24035;48.900;9.188;2023-04-21T11:05:37;14.20;5.00
38239;DHT22;24035;48.900;9.188;2023-04-21T11:08:13;14.40;1.00
38239;DHT22;24035;48.900;9.188;2023-04-21T11:13:13;14.70;1.00
38239;DHT22;24035;48.900;9.188;2023-04-21T11:15:39;14.90;1.00
38239;DHT22;24035;48.900;9.188;2023-04-21T11:18:05;15.10;1.00
38239;DHT22;24035;48.900;9.188;2023-04-21T11:20:39;15.50;1.00
38239;DHT22;24035;48.900;9.188;2023-04-21T11:23:05;15.60;1.00
38239;DHT22;24035;48.900;9.188;2023-04-21T11:25:31;15.70;1.00
38239;DHT22;24035;48.900;9.188;2023-04-21T11:27:57;16.00;1.00
38239;DHT22;24035;48.900;9.188;2023-04-21T11:30:34;16.60;1.00
38239;DHT22;24035;48.900;9.188;2023-04-21T11:33:00;17.20;99.90
38239;DHT22;24035;48.900;9.188;2023-04-21T11:35:26;17.00;99.90
38239;DHT22;24035;48.900;9.188;2023-04-21T11:37:51;16.70;1.00
38239;DHT22;24035;48.900;9.188;2023-04-21T11:40:17;16.60;1.00
38239;DHT22;24035;48.900;9.188;2023-04-21T11:42:44;16.70;1.00
38239;DHT22;24035;48.900;9.188;2023-04-21T11:45:18;16.80;99.90
38239;DHT22;24035;48.900;9.188;2023-04-21T11:47:44;16.70;99.90
38239;DHT22;24035;48.900;9.188;2023-04-21T11:50:10;16.70;99.90
38239;DHT22;24035;48.900;9.188;2023-04-21T11:52:36;16.30;1.00
38239;DHT22;24035;48.900;9.188;2023-04-21T11:55:02;16.20;1.00
38239;DHT22;24035;48.900;9.188;2023-04-21T11:57:30;16.20;1.00
38239;DHT22;24035;48.900;9.188;2023-04-21T12:00:02;16.00;1.00
38239;DHT22;24035;48.900;9.188;2023-04-21T12:02:30;15.60;1.00
38239;DHT22;24035;48.900;9.188;2023-04-21T12:05:04;15.50;1.00
38239;DHT22;24035;48.900;9.188;2023-04-21T12:07:35;15.60;1.00
38239;DHT22;24035;48.900;9.188;2023-04-21T12:10:07;15.50;1.00
38239;DHT22;24035;48.900;9.188;2023-04-21T12:12:36;15.50;1.00
38239;DHT22;24035;48.900;9.188;2023-04-21T12:15:02;15.50;1.00
38239;DHT22;24035;48.900;9.188;2023-04-21T12:17:37;15.70;1.00
38239;DHT22;24035;48.900;9.188;2023-04-21T12:20:05;15.80;1.00
38239;DHT22;24035;48.900;9.188;2023-04-21T12:22:32;15.90;1.00
38239;DHT22;24035;48.900;9.188;2023-04-21T12:24:57;15.80;1.00
38239;DHT22;24035;48.900;9.188;2023-04-21T12:27:23;15.80;1.00
38239;DHT22;24035;48.900;9.188;2023-04-21T12:29:49;15.70;1.00
38239;DHT22;24035;48.900;9.188;2023-04-21T12:32:14;15.90;1.00
38239;DHT22;24035;48.900;9.188;2023-04-21T12:34:40;16.10;1.00
38239;DHT22;24035;48.900;9.188;2023-04-21T12:37:06;16.20;1.00
38239;DHT22;24035;48.900;9.188;2023-04-21T12:39:32;16.30;1.00
38239;DHT22;24035;48.900;9.188;2023-04-21T12:41:58;16.30;1.00
38239;DHT22;24035;48.900;9.188;2023-04-21T12:44:24;16.40;1.00
38239;DHT22;24035;48.900;9.188;2023-04-21T12:46:51;16.40;1.00
38239;DHT22;24035;48.900;9.188;2023-04-21T12:49:17;16.30;1.00
38239;DHT22;24035;48.900;9.188;2023-04-21T12:51:43;16.20;1.00
38239;DHT22;24035;48.900;9.188;2023-04-21T12:54:12;16.40;1.00
38239;DHT22;24035;48.900;9.188;2023-04-21T12:56:38;16.60;1.00
38239;DHT22;24035;48.900;9.188;2023-04-21T12:59:08;16.50;1.00
38239;DHT22;24035;48.900;9.188;2023-04-21T13:01:38;16.60;1.00
38239;DHT22;24035;48.900;9.188;2023-04-21T13:04:05;16.50;1.00
38239;DHT22;24035;48.900;9.188;2023-04-21T13:06:32;16.60;1.00
38239;DHT22;24035;48.900;9.188;2023-04-21T13:08:58;16.70;1.00
38239;DHT22;24035;48.900;9.188;2023-04-21T13:11:24;16.70;99.90
38239;DHT22;24035;48.900;9.188;2023-04-21T13:13:50;16.90;1.00
38239;DHT22;24035;48.900;9.188;2023-04-21T13:16:16;17.10;1.00
38239;DHT22;24035;48.900;9.188;2023-04-21T13:18:43;17.20;1.00
38239;DHT22;24035;48.900;9.188;2023-04-21T13:21:09;17.40;1.00
38239;DHT22;24035;48.900;9.188;2023-04-21T13:23:35;17.50;1.00
38239;DHT22;24035;48.900;9.188;2023-04-21T13:26:00;17.50;99.90
38239;DHT22;24035;48.900;9.188;2023-04-21T13:28:26;17.50;99.90
38239;DHT22;24035;48.900;9.188;2023-04-21T13:30:52;17.40;99.90
38239;DHT22;24035;48.900;9.188;2023-04-21T13:33:18;17.50;1.00
38239;DHT22;24035;48.900;9.188;2023-04-21T13:35:44;17.50;99.90
38239;DHT22;24035;48.900;9.188;2023-04-21T13:38:10;17.60;99.90
38239;DHT22;24035;48.900;9.188;2023-04-21T13:40:35;17.60;99.90
38239;DHT22;24035;48.900;9.188;2023-04-21T13:43:01;17.60;99.90
38239;DHT22;24035;48.900;9.188;2023-04-21T13:45:27;17.70;99.90
38239;DHT22;24035;48.900;9.188;2023-04-21T13:47:53;17.70;99.90
38239;DHT22;24035;48.900;9.188;2023-04-21T13:50:18;17.90;99.90
38239;DHT22;24035;48.900;9.188;2023-04-21T13:52:44;17.90;99.90
38239;DHT22;24035;48.900;9.188;2023-04-21T13:55:10;17.80;99.90
38239;DHT22;24035;48.900;9.188;2023-04-21T13:57:36;17.90;99.90
38239;DHT22;24035;48.900;9.188;2023-04-21T14:00:03;17.80;99.90
38239;DHT22;24035;48.900;9.188;2023-04-21T14:02:31;17.70;99.90
38239;DHT22;24035;48.900;9.188;2023-04-21T14:04:57;17.70;99.90
38239;DHT22;24035;48.900;9.188;2023-04-21T14:07:22;17.80;99.90
38239;DHT22;24035;48.900;9.188;2023-04-21T14:09:49;17.80;99.90
38239;DHT22;24035;48.900;9.188;2023-04-21T14:12:16;18.00;99.90
38239;DHT22;24035;48.900;9.188;2023-04-21T14:14:42;18.00;99.90
38239;DHT22;24035;48.900;9.188;2023-04-21T14:17:08;18.10;99.90
38239;DHT22;24035;48.900;9.188;2023-04-21T14:19:34;18.20;99.90
38239;DHT22;24035;48.900;9.188;2023-04-21T14:22:00;18.40;99.90
38239;DHT22;24035;48.900;9.188;2023-04-21T14:24:25;18.50;99.90
38239;DHT22;24035;48.900;9.188;2023-04-21T14:26:54;18.70;99.90
38239;DHT22;24035;48.900;9.188;2023-04-21T14:29:21;18.70;99.90
38239;DHT22;24035;48.900;9.188;2023-04-21T14:31:47;18.70;99.90
38239;DHT22;24035;48.900;9.188;2023-04-21T14:34:12;18.50;99.90
38239;DHT22;24035;48.900;9.188;2023-04-21T14:36:38;18.40;99.90
38239;DHT22;24035;48.900;9.188;2023-04-21T14:39:04;18.50;99.90
38239;DHT22;24035;48.900;9.188;2023-04-21T14:41:29;18.70;99.90
38239;DHT22;24035;48.900;9.188;2023-04-21T14:43:55;18.70;99.90
38239;DHT22;24035;48.900;9.188;2023-04-21T14:46:22;18.80;99.90
38239;DHT22;24035;48.900;9.188;2023-04-21T14:48:48;18.70;99.90
38239;DHT22;24035;48.900;9.188;2023-04-21T14:51:13;18.80;99.90
38239;DHT22;24035;48.900;9.188;2023-04-21T14:53:39;18.80;99.90
38239;DHT22;24035;48.900;9.188;2023-04-21T14:56:05;18.60;99.90
38239;DHT22;24035;48.900;9.188;2023-04-21T14:58:31;18.70;99.90
38239;DHT22;24035;48.900;9.188;2023-04-21T15:00:56;18.80;99.90
38239;DHT22;24035;48.900;9.188;2023-04-21T15:03:22;18.80;99.90
38239;DHT22;24035;48.900;9.188;2023-04-21T15:05:48;18.80;99.90
38239;DHT22;24035;48.900;9.188;2023-04-21T15:08:14;18.70;99.90
38239;DHT22;24035;48.900;9.188;2023-04-21T15:10:43;18.70;99.90
38239;DHT22;24035;48.900;9.188;2023-04-21T15:13:09;18.90;99.90
38239;DHT22;24035;48.900;9.188;2023-04-21T15:15:35;19.10;99.90
38239;DHT22;24035;48.900;9.188;2023-04-21T15:18:00;19.30;99.90
38239;DHT22;24035;48.900;9.188;2023-04-21T15:20:26;19.20;99.90
38239;DHT22;24035;48.900;9.188;2023-04-21T15:22:51;19.30;99.90
38239;DHT22;24035;48.900;9.188;2023-04-21T15:25:17;19.50;99.90
38239;DHT22;24035;48.900;9.188;2023-04-21T15:27:43;19.70;99.90
38239;DHT22;24035;48.900;9.188;2023-04-21T15:30:09;19.80;99.90
38239;DHT22;24035;48.900;9.188;2023-04-21T15:32:35;19.90;99.90
38239;DHT22;24035;48.900;9.188;2023-04-21T15:35:00;20.00;99.90
38239;DHT22;24035;48.900;9.188;2023-04-21T15:37:26;20.20;99.90
38239;DHT22;24035;48.900;9.188;2023-04-21T15:39:52;20.30;99.90
38239;DHT22;24035;48.900;9.188;2023-04-21T15:42:17;20.50;99.90
38239;DHT22;24035;48.900;9.188;2023-04-21T15:44:43;20.80;99.90